sensor_id;sensor_type;location;lat;lon;timestamp;P1;durP1;ratioP1;P2;durP2;ratioP2
20657;SDS011;10488;50.846;4.078;2022-07-19T00:00:35;3.72;;;1.85;;
20657;SDS011;10488;50.846;4.078;2022-07-19T00:03:01;5.75;;;2.85;;
20657;SDS011;10488;50.846;4.078;2022-07-19T00:05:27;2.10;;;1.70;;
20657;SDS011;10488;50.846;4.078;2022-07-19T00:07:52;4.57;;;1.80;;
20657;SDS011;10488;50.846;4.078;2022-07-19T00:10:18;3.78;;;2.53;;
20657;SDS011;10488;50.846;4.078;2022-07-19T00:12:45;5.68;;;2.63;;
20657;SDS011;10488;50.846;4.078;2022-07-19T00:15:12;3.33;;;2.53;;
20657;SDS011;10488;50.846;4.078;2022-07-19T00:17:42;6.32;;;2.75;;
20657;SDS011;10488;50.846;4.078;2022-07-19T00:20:10;4.35;;;2.53;;
20657;SDS011;10488;50.846;4.078;2022-07-19T00:22:37;5.88;;;2.75;;
20657;SDS011;10488;50.846;4.078;2022-07-19T00:25:03;9.15;;;2.92;;
20657;SDS011;10488;50.846;4.078;2022-07-19T00:27:29;10.70;;;3.22;;
20657;SDS011;10488;50.846;4.078;2022-07-19T00:29:55;4.47;;;2.47;;
20657;SDS011;10488;50.846;4.078;2022-07-19T00:32:21;7.93;;;2.88;;
20657;SDS011;10488;50.846;4.078;2022-07-19T00:34:47;4.25;;;2.50;;
20657;SDS011;10488;50.846;4.078;2022-07-19T00:37:13;7.88;;;2.67;;
20657;SDS011;10488;50.846;4.078;2022-07-19T00:39:38;9.00;;;2.80;;
20657;SDS011;10488;50.846;4.078;2022-07-19T00:42:04;3.88;;;3.15;;
20657;SDS011;10488;50.846;4.078;2022-07-19T00:44:30;7.75;;;2.65;;
20657;SDS011;10488;50.846;4.078;2022-07-19T00:46:56;4.55;;;2.72;;
20657;SDS011;10488;50.846;4.078;2022-07-19T00:49:21;4.95;;;2.53;;
20657;SDS011;10488;50.846;4.078;2022-07-19T00:51:47;10.55;;;2.85;;
20657;SDS011;10488;50.846;4.078;2022-07-19T00:54:17;7.72;;;3.10;;
20657;SDS011;10488;50.846;4.078;2022-07-19T00:56:44;12.05;;;3.50;;
20657;SDS011;10488;50.846;4.078;2022-07-19T00:59:13;6.20;;;3.05;;
20657;SDS011;10488;50.846;4.078;2022-07-19T01:01:39;3.97;;;2.88;;
20657;SDS011;10488;50.846;4.078;2022-07-19T01:04:06;5.82;;;2.80;;
20657;SDS011;10488;50.846;4.078;2022-07-19T01:06:32;3.28;;;2.95;;
20657;SDS011;10488;50.846;4.078;2022-07-19T01:08:58;8.38;;;3.15;;
20657;SDS011;10488;50.846;4.078;2022-07-19T01:11:24;9.35;;;2.53;;
20657;SDS011;10488;50.846;4.078;2022-07-19T01:13:50;4.07;;;2.53;;
20657;SDS011;10488;50.846;4.078;2022-07-19T01:16:15;8.38;;;3.00;;
20657;SDS011;10488;50.846;4.078;2022-07-19T01:18:42;3.50;;;2.50;;
20657;SDS011;10488;50.846;4.078;2022-07-19T01:21:13;5.70;;;2.45;;
20657;SDS011;10488;50.846;4.078;2022-07-19T01:23:42;3.88;;;2.65;;
20657;SDS011;10488;50.846;4.078;2022-07-19T01:26:08;5.40;;;2.95;;
20657;SDS011;10488;50.846;4.078;2022-07-19T01:28:34;4.55;;;2.72;;
20657;SDS011;10488;50.846;4.078;2022-07-19T01:31:00;10.55;;;2.63;;
20657;SDS011;10488;50.846;4.078;2022-07-19T01:33:25;6.50;;;3.03;;
20657;SDS011;10488;50.846;4.078;2022-07-19T01:35:51;6.63;;;2.90;;
20657;SDS011;10488;50.846;4.078;2022-07-19T01:38:16;5.97;;;2.97;;
20657;SDS011;10488;50.846;4.078;2022-07-19T01:40:42;4.88;;;3.10;;
20657;SDS011;10488;50.846;4.078;2022-07-19T01:43:08;4.43;;;2.90;;
20657;SDS011;10488;50.846;4.078;2022-07-19T01:45:34;9.40;;;2.60;;
20657;SDS011;10488;50.846;4.078;2022-07-19T01:48:00;3.17;;;2.47;;
20657;SDS011;10488;50.846;4.078;2022-07-19T01:50:26;7.07;;;2.75;;
20657;SDS011;10488;50.846;4.078;2022-07-19T01:52:52;5.25;;;2.70;;
20657;SDS011;10488;50.846;4.078;2022-07-19T01:55:18;7.00;;;3.13;;
20657;SDS011;10488;50.846;4.078;2022-07-19T01:57:45;5.60;;;2.80;;
20657;SDS011;10488;50.846;4.078;2022-07-19T02:00:12;7.43;;;3.20;;
20657;SDS011;10488;50.846;4.078;2022-07-19T02:02:38;3.65;;;2.47;;
20657;SDS011;10488;50.846;4.078;2022-07-19T02:05:04;3.03;;;2.50;;
20657;SDS011;10488;50.846;4.078;2022-07-19T02:07:30;6.97;;;2.67;;
20657;SDS011;10488;50.846;4.078;2022-07-19T02:09:56;6.07;;;2.42;;
20657;SDS011;10488;50.846;4.078;2022-07-19T02:12:23;2.97;;;2.78;;
20657;SDS011;10488;50.846;4.078;2022-07-19T02:14:49;8.68;;;2.65;;
20657;SDS011;10488;50.846;4.078;2022-07-19T02:17:14;6.07;;;2.92;;
20657;SDS011;10488;50.846;4.078;2022-07-19T02:19:40;4.68;;;2.90;;
20657;SDS011;10488;50.846;4.078;2022-07-19T02:22:06;6.40;;;2.72;;
20657;SDS011;10488;50.846;4.078;2022-07-19T02:24:31;6.38;;;2.65;;
20657;SDS011;10488;50.846;4.078;2022-07-19T02:26:57;2.78;;;2.55;;
20657;SDS011;10488;50.846;4.078;2022-07-19T02:29:23;5.32;;;2.47;;
20657;SDS011;10488;50.846;4.078;2022-07-19T02:31:48;7.72;;;2.33;;
20657;SDS011;10488;50.846;4.078;2022-07-19T02:34:14;3.42;;;2.22;;
20657;SDS011;10488;50.846;4.078;2022-07-19T02:36:40;9.30;;;2.80;;
20657;SDS011;10488;50.846;4.078;2022-07-19T02:39:05;4.03;;;2.33;;
20657;SDS011;10488;50.846;4.078;2022-07-19T02:41:31;5.47;;;2.80;;
20657;SDS011;10488;50.846;4.078;2022-07-19T02:43:56;4.03;;;1.92;;
20657;SDS011;10488;50.846;4.078;2022-07-19T02:46:22;2.85;;;1.92;;
20657;SDS011;10488;50.846;4.078;2022-07-19T02:48:48;3.15;;;1.90;;
20657;SDS011;10488;50.846;4.078;2022-07-19T02:51:13;5.53;;;2.30;;
20657;SDS011;10488;50.846;4.078;2022-07-19T02:53:39;2.63;;;2.28;;
20657;SDS011;10488;50.846;4.078;2022-07-19T02:56:05;3.83;;;2.47;;
20657;SDS011;10488;50.846;4.078;2022-07-19T02:58:31;4.90;;;3.10;;
20657;SDS011;10488;50.846;4.078;2022-07-19T03:00:57;3.53;;;2.00;;
20657;SDS011;10488;50.846;4.078;2022-07-19T03:03:23;3.28;;;2.17;;
20657;SDS011;10488;50.846;4.078;2022-07-19T03:06:07;6.35;;;2.25;;
20657;SDS011;10488;50.846;4.078;2022-07-19T03:08:32;5.25;;;2.35;;
20657;SDS011;10488;50.846;4.078;2022-07-19T03:10:58;6.75;;;2.20;;
20657;SDS011;10488;50.846;4.078;2022-07-19T03:13:24;8.45;;;2.33;;
20657;SDS011;10488;50.846;4.078;2022-07-19T03:15:49;4.03;;;2.13;;
20657;SDS011;10488;50.846;4.078;2022-07-19T03:18:15;4.57;;;2.33;;
20657;SDS011;10488;50.846;4.078;2022-07-19T03:20:41;5.25;;;2.40;;
20657;SDS011;10488;50.846;4.078;2022-07-19T03:23:06;6.28;;;2.53;;
20657;SDS011;10488;50.846;4.078;2022-07-19T03:25:32;5.68;;;2.38;;
20657;SDS011;10488;50.846;4.078;2022-07-19T03:27:58;3.70;;;2.22;;
20657;SDS011;10488;50.846;4.078;2022-07-19T03:30:24;4.97;;;2.47;;
20657;SDS011;10488;50.846;4.078;2022-07-19T03:32:50;5.20;;;2.30;;
20657;SDS011;10488;50.846;4.078;2022-07-19T03:35:16;6.32;;;2.45;;
20657;SDS011;10488;50.846;4.078;2022-07-19T03:37:41;5.70;;;3.00;;
20657;SDS011;10488;50.846;4.078;2022-07-19T03:40:08;4.35;;;3.00;;
20657;SDS011;10488;50.846;4.078;2022-07-19T03:42:34;7.28;;;3.03;;
20657;SDS011;10488;50.846;4.078;2022-07-19T03:44:59;5.85;;;2.25;;
20657;SDS011;10488;50.846;4.078;2022-07-19T03:47:25;4.03;;;2.53;;
20657;SDS011;10488;50.846;4.078;2022-07-19T03:49:51;8.65;;;2.75;;
20657;SDS011;10488;50.846;4.078;2022-07-19T03:52:16;4.35;;;2.88;;
20657;SDS011;10488;50.846;4.078;2022-07-19T03:54:42;6.43;;;2.50;;
20657;SDS011;10488;50.846;4.078;2022-07-19T03:57:08;3.38;;;2.55;;
20657;SDS011;10488;50.846;4.078;2022-07-19T03:59:33;6.60;;;3.05;;
20657;SDS011;10488;50.846;4.078;2022-07-19T04:01:59;8.90;;;4.10;;
20657;SDS011;10488;50.846;4.078;2022-07-19T04:04:25;3.20;;;2.90;;
20657;SDS011;10488;50.846;4.078;2022-07-19T04:06:50;5.97;;;2.90;;
20657;SDS011;10488;50.846;4.078;2022-07-19T04:09:16;7.32;;;3.17;;
20657;SDS011;10488;50.846;4.078;2022-07-19T04:11:41;5.72;;;2.55;;
20657;SDS011;10488;50.846;4.078;2022-07-19T04:14:07;5.05;;;3.33;;
20657;SDS011;10488;50.846;4.078;2022-07-19T04:16:33;4.25;;;3.10;;
20657;SDS011;10488;50.846;4.078;2022-07-19T04:18:59;3.65;;;2.97;;
20657;SDS011;10488;50.846;4.078;2022-07-19T04:21:24;3.65;;;2.85;;
20657;SDS011;10488;50.846;4.078;2022-07-19T04:23:50;3.90;;;2.75;;
20657;SDS011;10488;50.846;4.078;2022-07-19T04:26:15;4.15;;;3.03;;
20657;SDS011;10488;50.846;4.078;2022-07-19T04:28:41;9.40;;;2.95;;
20657;SDS011;10488;50.846;4.078;2022-07-19T04:31:07;5.88;;;3.08;;
20657;SDS011;10488;50.846;4.078;2022-07-19T04:33:32;6.63;;;3.38;;
20657;SDS011;10488;50.846;4.078;2022-07-19T04:35:58;8.98;;;3.20;;
20657;SDS011;10488;50.846;4.078;2022-07-19T04:38:24;4.97;;;3.10;;
20657;SDS011;10488;50.846;4.078;2022-07-19T04:40:49;4.90;;;3.05;;
20657;SDS011;10488;50.846;4.078;2022-07-19T04:43:16;3.40;;;2.78;;
20657;SDS011;10488;50.846;4.078;2022-07-19T04:45:42;7.53;;;3.60;;
20657;SDS011;10488;50.846;4.078;2022-07-19T04:48:09;6.95;;;3.00;;
20657;SDS011;10488;50.846;4.078;2022-07-19T04:50:35;6.10;;;2.85;;
20657;SDS011;10488;50.846;4.078;2022-07-19T04:53:02;5.10;;;2.67;;
20657;SDS011;10488;50.846;4.078;2022-07-19T04:55:28;5.40;;;2.95;;
20657;SDS011;10488;50.846;4.078;2022-07-19T04:57:53;4.93;;;3.22;;
20657;SDS011;10488;50.846;4.078;2022-07-19T05:00:19;9.00;;;3.50;;
20657;SDS011;10488;50.846;4.078;2022-07-19T05:02:45;7.15;;;2.78;;
20657;SDS011;10488;50.846;4.078;2022-07-19T05:05:10;5.13;;;3.17;;
20657;SDS011;10488;50.846;4.078;2022-07-19T05:07:36;5.65;;;3.42;;
20657;SDS011;10488;50.846;4.078;2022-07-19T05:10:03;6.70;;;3.42;;
20657;SDS011;10488;50.846;4.078;2022-07-19T05:12:30;7.25;;;3.45;;
20657;SDS011;10488;50.846;4.078;2022-07-19T05:14:55;5.30;;;3.55;;
20657;SDS011;10488;50.846;4.078;2022-07-19T05:17:21;6.78;;;3.42;;
20657;SDS011;10488;50.846;4.078;2022-07-19T05:19:47;7.60;;;3.13;;
20657;SDS011;10488;50.846;4.078;2022-07-19T05:22:12;5.70;;;2.58;;
20657;SDS011;10488;50.846;4.078;2022-07-19T05:24:38;11.55;;;2.78;;
20657;SDS011;10488;50.846;4.078;2022-07-19T05:27:04;8.32;;;2.78;;
20657;SDS011;10488;50.846;4.078;2022-07-19T05:29:29;9.00;;;2.88;;
20657;SDS011;10488;50.846;4.078;2022-07-19T05:31:55;9.18;;;2.50;;
20657;SDS011;10488;50.846;4.078;2022-07-19T05:34:20;8.07;;;2.20;;
20657;SDS011;10488;50.846;4.078;2022-07-19T05:36:46;6.70;;;2.17;;
20657;SDS011;10488;50.846;4.078;2022-07-19T05:39:12;5.30;;;2.83;;
20657;SDS011;10488;50.846;4.078;2022-07-19T05:41:37;4.78;;;2.17;;
20657;SDS011;10488;50.846;4.078;2022-07-19T05:44:03;4.75;;;2.47;;
20657;SDS011;10488;50.846;4.078;2022-07-19T05:46:29;5.20;;;2.45;;
20657;SDS011;10488;50.846;4.078;2022-07-19T05:48:54;6.97;;;2.05;;
20657;SDS011;10488;50.846;4.078;2022-07-19T05:51:20;6.80;;;2.60;;
20657;SDS011;10488;50.846;4.078;2022-07-19T05:53:46;7.25;;;2.15;;
20657;SDS011;10488;50.846;4.078;2022-07-19T05:56:11;3.63;;;1.98;;
20657;SDS011;10488;50.846;4.078;2022-07-19T05:58:37;6.28;;;2.20;;
20657;SDS011;10488;50.846;4.078;2022-07-19T06:01:03;3.83;;;2.15;;
20657;SDS011;10488;50.846;4.078;2022-07-19T06:04:05;3.42;;;2.28;;
20657;SDS011;10488;50.846;4.078;2022-07-19T06:06:31;8.88;;;2.88;;
20657;SDS011;10488;50.846;4.078;2022-07-19T06:08:59;4.25;;;2.42;;
20657;SDS011;10488;50.846;4.078;2022-07-19T06:11:26;7.05;;;2.53;;
20657;SDS011;10488;50.846;4.078;2022-07-19T06:13:52;5.47;;;2.30;;
20657;SDS011;10488;50.846;4.078;2022-07-19T06:16:18;11.82;;;3.22;;
20657;SDS011;10488;50.846;4.078;2022-07-19T06:18:44;7.15;;;3.08;;
20657;SDS011;10488;50.846;4.078;2022-07-19T06:21:11;7.05;;;2.80;;
20657;SDS011;10488;50.846;4.078;2022-07-19T06:23:39;9.90;;;2.65;;
20657;SDS011;10488;50.846;4.078;2022-07-19T06:26:06;6.45;;;2.30;;
20657;SDS011;10488;50.846;4.078;2022-07-19T06:28:32;10.45;;;2.78;;
20657;SDS011;10488;50.846;4.078;2022-07-19T06:30:59;8.50;;;2.63;;
20657;SDS011;10488;50.846;4.078;2022-07-19T06:33:25;5.28;;;2.30;;
20657;SDS011;10488;50.846;4.078;2022-07-19T06:35:51;5.18;;;2.28;;
20657;SDS011;10488;50.846;4.078;2022-07-19T06:38:16;3.05;;;2.20;;
20657;SDS011;10488;50.846;4.078;2022-07-19T06:40:43;3.38;;;2.05;;
20657;SDS011;10488;50.846;4.078;2022-07-19T06:43:09;6.38;;;2.17;;
20657;SDS011;10488;50.846;4.078;2022-07-19T06:45:35;8.38;;;2.20;;
20657;SDS011;10488;50.846;4.078;2022-07-19T06:48:02;8.07;;;4.70;;
20657;SDS011;10488;50.846;4.078;2022-07-19T06:50:27;3.78;;;2.00;;
20657;SDS011;10488;50.846;4.078;2022-07-19T06:52:53;7.22;;;2.50;;
20657;SDS011;10488;50.846;4.078;2022-07-19T06:55:19;12.48;;;2.15;;
20657;SDS011;10488;50.846;4.078;2022-07-19T06:57:45;3.53;;;2.00;;
20657;SDS011;10488;50.846;4.078;2022-07-19T07:00:11;7.43;;;1.65;;
20657;SDS011;10488;50.846;4.078;2022-07-19T07:02:38;8.43;;;2.58;;
20657;SDS011;10488;50.846;4.078;2022-07-19T07:05:05;8.43;;;2.15;;
20657;SDS011;10488;50.846;4.078;2022-07-19T07:07:32;4.50;;;2.17;;
20657;SDS011;10488;50.846;4.078;2022-07-19T07:09:58;3.88;;;2.10;;
20657;SDS011;10488;50.846;4.078;2022-07-19T07:12:26;10.63;;;2.45;;
20657;SDS011;10488;50.846;4.078;2022-07-19T07:14:52;5.47;;;2.20;;
20657;SDS011;10488;50.846;4.078;2022-07-19T07:17:18;7.20;;;2.55;;
20657;SDS011;10488;50.846;4.078;2022-07-19T07:19:44;12.23;;;2.22;;
20657;SDS011;10488;50.846;4.078;2022-07-19T07:22:10;7.40;;;2.38;;
20657;SDS011;10488;50.846;4.078;2022-07-19T07:24:35;8.10;;;2.88;;
20657;SDS011;10488;50.846;4.078;2022-07-19T07:27:01;9.77;;;2.60;;
20657;SDS011;10488;50.846;4.078;2022-07-19T07:29:27;6.97;;;2.03;;
20657;SDS011;10488;50.846;4.078;2022-07-19T07:31:53;3.42;;;2.08;;
20657;SDS011;10488;50.846;4.078;2022-07-19T07:34:18;7.03;;;2.80;;
20657;SDS011;10488;50.846;4.078;2022-07-19T07:36:44;6.88;;;2.67;;
20657;SDS011;10488;50.846;4.078;2022-07-19T07:39:10;4.65;;;2.05;;
20657;SDS011;10488;50.846;4.078;2022-07-19T07:41:37;6.85;;;2.65;;
20657;SDS011;10488;50.846;4.078;2022-07-19T07:44:03;7.25;;;2.10;;
20657;SDS011;10488;50.846;4.078;2022-07-19T07:46:28;5.43;;;2.25;;
20657;SDS011;10488;50.846;4.078;2022-07-19T07:48:54;5.95;;;2.13;;
20657;SDS011;10488;50.846;4.078;2022-07-19T07:51:20;15.70;;;2.85;;
20657;SDS011;10488;50.846;4.078;2022-07-19T07:53:46;3.95;;;2.35;;
20657;SDS011;10488;50.846;4.078;2022-07-19T07:56:11;7.05;;;2.40;;
20657;SDS011;10488;50.846;4.078;2022-07-19T07:58:37;9.93;;;2.85;;
20657;SDS011;10488;50.846;4.078;2022-07-19T08:01:02;6.30;;;2.58;;
20657;SDS011;10488;50.846;4.078;2022-07-19T08:03:28;6.20;;;2.58;;
20657;SDS011;10488;50.846;4.078;2022-07-19T08:05:54;10.48;;;2.60;;
20657;SDS011;10488;50.846;4.078;2022-07-19T08:08:22;10.10;;;2.42;;
20657;SDS011;10488;50.846;4.078;2022-07-19T08:10:52;5.55;;;2.90;;
20657;SDS011;10488;50.846;4.078;2022-07-19T08:13:19;5.55;;;2.92;;
20657;SDS011;10488;50.846;4.078;2022-07-19T08:15:45;11.90;;;3.03;;
20657;SDS011;10488;50.846;4.078;2022-07-19T08:18:11;9.45;;;3.28;;
20657;SDS011;10488;50.846;4.078;2022-07-19T08:20:36;12.02;;;3.00;;
20657;SDS011;10488;50.846;4.078;2022-07-19T08:23:02;7.70;;;2.83;;
20657;SDS011;10488;50.846;4.078;2022-07-19T08:25:28;9.57;;;2.85;;
20657;SDS011;10488;50.846;4.078;2022-07-19T08:27:54;10.35;;;3.10;;
20657;SDS011;10488;50.846;4.078;2022-07-19T08:30:19;8.00;;;2.55;;
20657;SDS011;10488;50.846;4.078;2022-07-19T08:32:45;7.72;;;3.38;;
20657;SDS011;10488;50.846;4.078;2022-07-19T08:35:11;6.40;;;3.03;;
20657;SDS011;10488;50.846;4.078;2022-07-19T08:37:37;7.93;;;2.95;;
20657;SDS011;10488;50.846;4.078;2022-07-19T08:40:03;9.02;;;2.90;;
20657;SDS011;10488;50.846;4.078;2022-07-19T08:42:30;10.50;;;2.72;;
20657;SDS011;10488;50.846;4.078;2022-07-19T08:44:56;10.40;;;2.85;;
20657;SDS011;10488;50.846;4.078;2022-07-19T08:47:25;15.80;;;3.03;;
20657;SDS011;10488;50.846;4.078;2022-07-19T08:49:53;9.05;;;3.90;;
20657;SDS011;10488;50.846;4.078;2022-07-19T08:52:19;9.88;;;2.90;;
20657;SDS011;10488;50.846;4.078;2022-07-19T08:54:45;12.40;;;2.95;;
20657;SDS011;10488;50.846;4.078;2022-07-19T08:57:11;10.02;;;3.28;;
20657;SDS011;10488;50.846;4.078;2022-07-19T08:59:59;10.10;;;2.95;;
20657;SDS011;10488;50.846;4.078;2022-07-19T09:02:26;8.90;;;2.78;;
20657;SDS011;10488;50.846;4.078;2022-07-19T09:05:01;9.38;;;2.67;;
20657;SDS011;10488;50.846;4.078;2022-07-19T09:07:30;8.20;;;2.80;;
20657;SDS011;10488;50.846;4.078;2022-07-19T09:16:02;5.57;;;2.85;;
20657;SDS011;10488;50.846;4.078;2022-07-19T09:20:54;8.65;;;3.00;;
20657;SDS011;10488;50.846;4.078;2022-07-19T09:23:22;11.57;;;2.65;;
20657;SDS011;10488;50.846;4.078;2022-07-19T09:25:57;11.80;;;3.38;;
20657;SDS011;10488;50.846;4.078;2022-07-19T09:28:25;12.52;;;3.10;;
20657;SDS011;10488;50.846;4.078;2022-07-19T09:30:53;8.32;;;2.95;;
20657;SDS011;10488;50.846;4.078;2022-07-19T09:33:27;9.18;;;2.85;;
20657;SDS011;10488;50.846;4.078;2022-07-19T09:35:59;10.10;;;2.92;;
20657;SDS011;10488;50.846;4.078;2022-07-19T09:38:30;14.07;;;3.05;;
20657;SDS011;10488;50.846;4.078;2022-07-19T09:41:13;8.27;;;2.72;;
20657;SDS011;10488;50.846;4.078;2022-07-19T09:43:50;8.52;;;3.00;;
20657;SDS011;10488;50.846;4.078;2022-07-19T09:49:15;8.93;;;3.08;;
20657;SDS011;10488;50.846;4.078;2022-07-19T09:51:46;9.13;;;2.70;;
20657;SDS011;10488;50.846;4.078;2022-07-19T09:54:13;5.70;;;2.47;;
20657;SDS011;10488;50.846;4.078;2022-07-19T09:56:41;10.05;;;2.65;;
20657;SDS011;10488;50.846;4.078;2022-07-19T09:59:08;4.53;;;2.03;;
20657;SDS011;10488;50.846;4.078;2022-07-19T10:01:35;10.23;;;2.85;;
20657;SDS011;10488;50.846;4.078;2022-07-19T10:04:09;5.45;;;2.60;;
20657;SDS011;10488;50.846;4.078;2022-07-19T10:06:36;11.05;;;2.85;;
20657;SDS011;10488;50.846;4.078;2022-07-19T10:09:04;6.63;;;1.92;;
20657;SDS011;10488;50.846;4.078;2022-07-19T10:11:31;8.80;;;2.35;;
20657;SDS011;10488;50.846;4.078;2022-07-19T10:13:58;14.32;;;2.13;;
20657;SDS011;10488;50.846;4.078;2022-07-19T10:21:58;5.70;;;2.20;;
20657;SDS011;10488;50.846;4.078;2022-07-19T10:25:10;9.73;;;2.63;;
20657;SDS011;10488;50.846;4.078;2022-07-19T10:32:40;4.50;;;2.33;;
20657;SDS011;10488;50.846;4.078;2022-07-19T10:43:15;6.60;;;2.20;;
20657;SDS011;10488;50.846;4.078;2022-07-19T10:45:42;3.97;;;2.30;;
20657;SDS011;10488;50.846;4.078;2022-07-19T10:51:27;4.90;;;2.03;;
20657;SDS011;10488;50.846;4.078;2022-07-19T10:54:02;9.77;;;2.20;;
20657;SDS011;10488;50.846;4.078;2022-07-19T10:57:32;6.78;;;2.17;;
20657;SDS011;10488;50.846;4.078;2022-07-19T10:59:32;4.28;;;2.10;;
20657;SDS011;10488;50.846;4.078;2022-07-19T11:01:59;7.03;;;2.03;;
20657;SDS011;10488;50.846;4.078;2022-07-19T11:07:13;5.82;;;1.92;;
20657;SDS011;10488;50.846;4.078;2022-07-19T11:09:53;9.05;;;2.00;;
20657;SDS011;10488;50.846;4.078;2022-07-19T11:12:25;4.82;;;2.03;;
20657;SDS011;10488;50.846;4.078;2022-07-19T11:14:53;6.05;;;2.15;;
20657;SDS011;10488;50.846;4.078;2022-07-19T11:17:20;7.93;;;2.25;;
20657;SDS011;10488;50.846;4.078;2022-07-19T11:20:08;7.20;;;2.78;;
20657;SDS011;10488;50.846;4.078;2022-07-19T11:22:38;4.80;;;2.15;;
20657;SDS011;10488;50.846;4.078;2022-07-19T11:25:06;7.13;;;2.22;;
20657;SDS011;10488;50.846;4.078;2022-07-19T11:27:33;6.05;;;2.53;;
20657;SDS011;10488;50.846;4.078;2022-07-19T11:30:00;7.40;;;2.08;;
20657;SDS011;10488;50.846;4.078;2022-07-19T11:32:28;7.57;;;2.53;;
20657;SDS011;10488;50.846;4.078;2022-07-19T11:34:59;10.13;;;2.50;;
20657;SDS011;10488;50.846;4.078;2022-07-19T11:37:28;8.93;;;2.60;;
20657;SDS011;10488;50.846;4.078;2022-07-19T11:39:55;10.40;;;2.83;;
20657;SDS011;10488;50.846;4.078;2022-07-19T11:44:54;9.45;;;2.65;;
20657;SDS011;10488;50.846;4.078;2022-07-19T11:47:20;6.18;;;2.47;;
20657;SDS011;10488;50.846;4.078;2022-07-19T11:49:46;12.00;;;2.97;;
20657;SDS011;10488;50.846;4.078;2022-07-19T11:52:12;5.18;;;2.63;;
20657;SDS011;10488;50.846;4.078;2022-07-19T11:54:37;9.55;;;3.63;;
20657;SDS011;10488;50.846;4.078;2022-07-19T11:57:21;7.75;;;2.90;;
20657;SDS011;10488;50.846;4.078;2022-07-19T11:59:48;7.35;;;2.67;;
20657;SDS011;10488;50.846;4.078;2022-07-19T12:02:14;9.98;;;2.78;;
20657;SDS011;10488;50.846;4.078;2022-07-19T12:04:40;5.93;;;2.75;;
20657;SDS011;10488;50.846;4.078;2022-07-19T12:07:05;7.82;;;2.85;;
20657;SDS011;10488;50.846;4.078;2022-07-19T12:09:31;9.35;;;2.80;;
20657;SDS011;10488;50.846;4.078;2022-07-19T12:11:58;8.20;;;2.85;;
20657;SDS011;10488;50.846;4.078;2022-07-19T12:17:11;6.20;;;3.20;;
20657;SDS011;10488;50.846;4.078;2022-07-19T12:19:41;5.43;;;3.03;;
20657;SDS011;10488;50.846;4.078;2022-07-19T12:24:58;9.38;;;2.90;;
20657;SDS011;10488;50.846;4.078;2022-07-19T12:27:23;6.30;;;2.70;;
20657;SDS011;10488;50.846;4.078;2022-07-19T12:29:53;5.90;;;2.60;;
20657;SDS011;10488;50.846;4.078;2022-07-19T12:32:31;7.65;;;2.78;;
20657;SDS011;10488;50.846;4.078;2022-07-19T12:35:00;6.68;;;2.80;;
20657;SDS011;10488;50.846;4.078;2022-07-19T12:37:31;5.88;;;2.67;;
20657;SDS011;10488;50.846;4.078;2022-07-19T12:39:58;3.88;;;2.40;;
20657;SDS011;10488;50.846;4.078;2022-07-19T12:42:25;8.93;;;2.75;;
20657;SDS011;10488;50.846;4.078;2022-07-19T12:44:51;5.22;;;2.90;;
20657;SDS011;10488;50.846;4.078;2022-07-19T12:47:18;10.85;;;2.90;;
20657;SDS011;10488;50.846;4.078;2022-07-19T12:49:44;6.70;;;3.05;;
20657;SDS011;10488;50.846;4.078;2022-07-19T12:52:14;10.95;;;2.95;;
20657;SDS011;10488;50.846;4.078;2022-07-19T12:54:40;4.40;;;2.80;;
20657;SDS011;10488;50.846;4.078;2022-07-19T12:57:06;5.40;;;2.90;;
20657;SDS011;10488;50.846;4.078;2022-07-19T12:59:31;6.30;;;3.05;;
20657;SDS011;10488;50.846;4.078;2022-07-19T13:02:07;9.40;;;2.78;;
20657;SDS011;10488;50.846;4.078;2022-07-19T13:04:35;6.05;;;2.50;;
20657;SDS011;10488;50.846;4.078;2022-07-19T13:07:01;7.70;;;2.83;;
20657;SDS011;10488;50.846;4.078;2022-07-19T13:09:27;13.68;;;2.50;;
20657;SDS011;10488;50.846;4.078;2022-07-19T13:11:53;6.95;;;2.53;;
20657;SDS011;10488;50.846;4.078;2022-07-19T13:14:19;7.30;;;2.90;;
20657;SDS011;10488;50.846;4.078;2022-07-19T13:16:45;11.32;;;2.50;;
20657;SDS011;10488;50.846;4.078;2022-07-19T13:19:10;5.97;;;2.75;;
20657;SDS011;10488;50.846;4.078;2022-07-19T13:21:36;9.10;;;2.83;;
20657;SDS011;10488;50.846;4.078;2022-07-19T13:24:02;9.70;;;2.70;;
20657;SDS011;10488;50.846;4.078;2022-07-19T13:26:28;9.75;;;2.97;;
20657;SDS011;10488;50.846;4.078;2022-07-19T13:28:54;6.55;;;2.60;;
20657;SDS011;10488;50.846;4.078;2022-07-19T13:31:20;6.82;;;2.80;;
20657;SDS011;10488;50.846;4.078;2022-07-19T13:33:46;9.60;;;2.58;;
20657;SDS011;10488;50.846;4.078;2022-07-19T13:36:11;5.22;;;2.83;;
20657;SDS011;10488;50.846;4.078;2022-07-19T13:38:37;6.78;;;2.55;;
20657;SDS011;10488;50.846;4.078;2022-07-19T13:41:05;4.35;;;2.53;;
20657;SDS011;10488;50.846;4.078;2022-07-19T13:43:31;4.82;;;1.92;;
20657;SDS011;10488;50.846;4.078;2022-07-19T13:45:57;7.38;;;2.33;;
20657;SDS011;10488;50.846;4.078;2022-07-19T13:48:24;7.10;;;2.42;;
20657;SDS011;10488;50.846;4.078;2022-07-19T13:50:52;10.70;;;3.05;;
20657;SDS011;10488;50.846;4.078;2022-07-19T13:53:18;4.75;;;2.47;;
20657;SDS011;10488;50.846;4.078;2022-07-19T13:55:44;6.60;;;2.38;;
20657;SDS011;10488;50.846;4.078;2022-07-19T13:58:10;6.93;;;2.28;;
20657;SDS011;10488;50.846;4.078;2022-07-19T14:00:35;4.72;;;2.22;;
20657;SDS011;10488;50.846;4.078;2022-07-19T14:03:01;7.38;;;2.05;;
20657;SDS011;10488;50.846;4.078;2022-07-19T14:05:27;10.25;;;2.08;;
20657;SDS011;10488;50.846;4.078;2022-07-19T14:07:52;6.07;;;2.13;;
20657;SDS011;10488;50.846;4.078;2022-07-19T14:10:18;3.00;;;1.73;;
20657;SDS011;10488;50.846;4.078;2022-07-19T14:12:44;3.80;;;1.88;;
20657;SDS011;10488;50.846;4.078;2022-07-19T14:15:10;3.75;;;1.73;;
20657;SDS011;10488;50.846;4.078;2022-07-19T14:17:35;9.48;;;2.13;;
20657;SDS011;10488;50.846;4.078;2022-07-19T14:20:01;5.20;;;2.05;;
20657;SDS011;10488;50.846;4.078;2022-07-19T14:22:29;7.30;;;1.90;;
20657;SDS011;10488;50.846;4.078;2022-07-19T14:24:56;8.55;;;1.88;;
20657;SDS011;10488;50.846;4.078;2022-07-19T14:27:22;7.60;;;1.90;;
20657;SDS011;10488;50.846;4.078;2022-07-19T14:29:48;7.80;;;1.75;;
20657;SDS011;10488;50.846;4.078;2022-07-19T14:32:13;15.23;;;2.00;;
20657;SDS011;10488;50.846;4.078;2022-07-19T14:34:39;3.95;;;1.83;;
20657;SDS011;10488;50.846;4.078;2022-07-19T14:37:05;9.13;;;1.77;;
20657;SDS011;10488;50.846;4.078;2022-07-19T14:39:31;2.42;;;1.50;;
20657;SDS011;10488;50.846;4.078;2022-07-19T14:41:57;6.38;;;1.63;;
20657;SDS011;10488;50.846;4.078;2022-07-19T14:44:25;6.38;;;1.77;;
20657;SDS011;10488;50.846;4.078;2022-07-19T14:46:51;6.72;;;1.30;;
20657;SDS011;10488;50.846;4.078;2022-07-19T14:49:18;5.38;;;1.55;;
20657;SDS011;10488;50.846;4.078;2022-07-19T14:51:44;2.40;;;1.58;;
20657;SDS011;10488;50.846;4.078;2022-07-19T14:54:09;7.57;;;1.83;;
20657;SDS011;10488;50.846;4.078;2022-07-19T14:56:35;3.53;;;1.33;;
20657;SDS011;10488;50.846;4.078;2022-07-19T14:59:00;6.18;;;1.67;;
20657;SDS011;10488;50.846;4.078;2022-07-19T15:01:26;11.80;;;1.45;;
20657;SDS011;10488;50.846;4.078;2022-07-19T15:03:52;3.05;;;1.30;;
20657;SDS011;10488;50.846;4.078;2022-07-19T15:06:17;9.80;;;1.70;;
20657;SDS011;10488;50.846;4.078;2022-07-19T15:08:43;7.40;;;1.63;;
20657;SDS011;10488;50.846;4.078;2022-07-19T15:11:09;7.70;;;1.48;;
20657;SDS011;10488;50.846;4.078;2022-07-19T15:13:35;6.95;;;1.52;;
20657;SDS011;10488;50.846;4.078;2022-07-19T15:16:00;7.55;;;1.40;;
20657;SDS011;10488;50.846;4.078;2022-07-19T15:18:26;7.72;;;1.40;;
20657;SDS011;10488;50.846;4.078;2022-07-19T15:20:52;2.25;;;1.40;;
20657;SDS011;10488;50.846;4.078;2022-07-19T15:23:17;5.32;;;1.30;;
20657;SDS011;10488;50.846;4.078;2022-07-19T15:25:43;4.85;;;1.77;;
20657;SDS011;10488;50.846;4.078;2022-07-19T15:28:09;3.35;;;1.40;;